Vb Ouragan — FIVA — position and weather

sailwx.info

Track history (hours):
 
Tides and Currents Weather Stations Pressure Air Temp Water Temp Dewpoint Dewpoint Depression Visibility Wind Speed Wind Dir Waves Ship Positions

Vb Ouragan

Last reported at 2017-Nov-20 00:30 UTC. Time now 2017-Nov-20 07:20 UTC.
Position N 47°18' W 002°08'.

Length 30 m; draft 5 m.

Type: Tug. MMSI: 228067800.

Date/timePositionNaut miles runAvg speedWind from/ knotsBaromVisibWave heightAir tempDewpointWater temp
2017-Nov-20 00:30N 47°18' W 002°08'1 2.6
2017-Nov-20 00:00N 47°18' W 002°06'0 0.2
2017-Nov-19 23:30N 47°18' W 002°06'0 0.1
2017-Nov-19 23:00N 47°18' W 002°06'0 0.6
2017-Nov-19 22:30N 47°18' W 002°07'4 7.8
2017-Nov-19 22:00N 47°16' W 002°11'0 0.6
2017-Nov-19 21:15N 47°16' W 002°12'0 0.0
2017-Nov-19 20:54N 47°16' W 002°12'0 0.0
2017-Nov-19 20:30N 47°16' W 002°12'0 0.0
2017-Nov-19 19:54N 47°16' W 002°12'0 0.0
2017-Nov-19 19:30N 47°16' W 002°12'0 0.0
2017-Nov-19 19:00N 47°16' W 002°12'0 0.0
2017-Nov-19 18:30N 47°16' W 002°12'0 0.0
2017-Nov-19 18:00N 47°16' W 002°12'0 0.0
2017-Nov-19 17:30N 47°16' W 002°12'0 0.0
2017-Nov-19 17:00N 47°16' W 002°12'4 8.9
2017-Nov-19 16:30N 47°18' W 002°06'2 3.1
2017-Nov-19 16:00N 47°18' W 002°04'0 0.0
2017-Nov-19 15:30N 47°18' W 002°04'3 6.1
2017-Nov-19 15:00N 47°18' W 002°08'1 1.2
2017-Nov-19 14:30N 47°18' W 002°09'2 4.8
2017-Nov-19 14:00N 47°16' W 002°12'0 0.0
2017-Nov-19 13:27N 47°16' W 002°12'0 0.0
2017-Nov-19 12:55N 47°16' W 002°12'0 0.0
2017-Nov-19 12:23N 47°16' W 002°12'0 0.0
2017-Nov-19 09:25N 47°16' W 002°12'0 0.0
2017-Nov-19 08:46N 47°16' W 002°12'0 0.0
2017-Nov-19 08:28N 47°16' W 002°12'0 0.0
2017-Nov-19 08:00N 47°16' W 002°12'0 0.0
2017-Nov-19 07:30N 47°16' W 002°12'0 0.0
2017-Nov-19 07:00N 47°16' W 002°12'0 0.0
2017-Nov-19 06:30N 47°16' W 002°12'0 0.0
2017-Nov-19 06:00N 47°16' W 002°12'0 0.0
2017-Nov-19 05:30N 47°16' W 002°12'0 0.0
2017-Nov-19 05:00N 47°16' W 002°12'0 0.0
2017-Nov-19 04:30N 47°16' W 002°12'0 0.0
2017-Nov-19 03:58N 47°16' W 002°12'0 0.0
2017-Nov-19 03:30N 47°16' W 002°12'0 0.0
2017-Nov-19 03:00N 47°16' W 002°12'0 0.0
2017-Nov-19 02:30N 47°16' W 002°12'0 0.0
2017-Nov-19 02:00N 47°16' W 002°12'0 0.0
2017-Nov-19 01:23N 47°16' W 002°12'0 0.0
2017-Nov-19 01:00N 47°16' W 002°12'0 0.0
2017-Nov-19 00:30N 47°16' W 002°12'0 0.0
2017-Nov-19 00:00N 47°16' W 002°12'0 0.0
2017-Nov-18 23:30N 47°16' W 002°12'0 0.0
2017-Nov-18 23:00N 47°16' W 002°12'0 0.0
2017-Nov-18 22:29N 47°16' W 002°12'0 0.0
2017-Nov-18 22:00N 47°16' W 002°12'0 0.0
2017-Nov-18 21:29N 47°16' W 002°12'0 0.0
2017-Nov-18 21:00N 47°16' W 002°12'0 0.0
2017-Nov-18 20:30N 47°16' W 002°12'0 0.0
2017-Nov-18 20:00N 47°16' W 002°12'0 0.0
2017-Nov-18 19:30N 47°16' W 002°12'0 0.0
2017-Nov-18 18:59N 47°16' W 002°12'0 0.0
2017-Nov-18 18:30N 47°16' W 002°12'0 0.0
2017-Nov-18 18:00N 47°16' W 002°12'0 0.0
2017-Nov-18 17:30N 47°16' W 002°12'0 0.0
2017-Nov-18 17:00N 47°16' W 002°12'0 0.0
2017-Nov-18 16:30N 47°16' W 002°12'2 4.9
2017-Nov-18 16:00N 47°18' W 002°09'4 7.4
2017-Nov-18 15:30N 47°18' W 002°04'0 0.4
2017-Nov-18 15:00N 47°18' W 002°04'5 9.3
2017-Nov-18 14:30N 47°17' W 002°11'1 2.7
2017-Nov-18 14:00N 47°16' W 002°12'0 0.0
2017-Nov-18 13:30N 47°16' W 002°12'0 0.0
2017-Nov-18 13:00N 47°16' W 002°12'0 0.0
2017-Nov-18 12:30N 47°16' W 002°12'0 0.0
2017-Nov-18 12:00N 47°16' W 002°12'0 0.0
2017-Nov-18 11:30N 47°16' W 002°12'0 0.0
2017-Nov-18 10:58N 47°16' W 002°12'0 0.0
2017-Nov-18 10:30N 47°16' W 002°12'0 0.0
2017-Nov-18 10:00N 47°16' W 002°12'0 0.0
2017-Nov-18 09:30N 47°16' W 002°12'0 0.0
2017-Nov-18 09:00N 47°16' W 002°12'0 0.0
2017-Nov-18 08:30N 47°16' W 002°12'0 0.0
2017-Nov-18 08:00N 47°16' W 002°12'3 5.7
2017-Nov-18 07:30N 47°18' W 002°09'0 0.0
2017-Nov-18 07:00N 47°18' W 002°09'0 0.0
2017-Nov-18 06:30N 47°18' W 002°09'0 0.0
2017-Nov-18 06:00N 47°18' W 002°09'0 0.0
2017-Nov-18 05:30N 47°18' W 002°09'0 0.0
2017-Nov-18 05:00N 47°18' W 002°09'0 0.0
2017-Nov-18 04:30N 47°18' W 002°09'0 0.0
2017-Nov-18 04:00N 47°18' W 002°09'0 0.0
2017-Nov-18 03:30N 47°18' W 002°09'0 0.0
2017-Nov-18 03:00N 47°18' W 002°09'0 0.0
2017-Nov-18 02:30N 47°18' W 002°09'0 0.0
2017-Nov-18 02:00N 47°18' W 002°09'0 0.0
2017-Nov-18 01:30N 47°18' W 002°09'0 0.0
2017-Nov-18 00:56N 47°18' W 002°09'0 0.0
2017-Nov-18 00:30N 47°18' W 002°09'0 0.0
2017-Nov-18 00:00N 47°18' W 002°09'0 0.0
2017-Nov-17 23:30N 47°18' W 002°09'0 0.0
2017-Nov-17 23:00N 47°18' W 002°09'0 0.0
2017-Nov-17 22:30N 47°18' W 002°09'0 0.0
2017-Nov-17 22:00N 47°18' W 002°09'0 0.0
2017-Nov-17 21:30N 47°18' W 002°09'0 0.0
2017-Nov-17 21:00N 47°18' W 002°09'0 0.0
2017-Nov-17 20:30N 47°18' W 002°09'0 0.0
2017-Nov-17 20:00N 47°18' W 002°09'0 0.0
2017-Nov-17 19:30N 47°18' W 002°09'0 0.0
2017-Nov-17 19:00N 47°18' W 002°09'0 0.0
2017-Nov-17 18:30N 47°18' W 002°09'0 0.0
2017-Nov-17 18:00N 47°18' W 002°09'0 0.0
2017-Nov-17 17:30N 47°18' W 002°09'0 0.0
2017-Nov-17 17:00N 47°18' W 002°09'0 0.0
2017-Nov-17 16:30N 47°18' W 002°09'0 0.0
2017-Nov-17 16:00N 47°18' W 002°09'0 0.0
2017-Nov-17 15:30N 47°18' W 002°09'0 0.0
2017-Nov-17 15:00N 47°18' W 002°09'0 0.0
2017-Nov-17 14:30N 47°18' W 002°09'0 0.0
2017-Nov-17 14:00N 47°18' W 002°09'0 0.0
2017-Nov-17 13:30N 47°18' W 002°09'0 0.0
2017-Nov-17 13:00N 47°18' W 002°09'0 0.0
2017-Nov-17 12:29N 47°18' W 002°09'0 0.0
2017-Nov-17 11:58N 47°18' W 002°09'0 0.0
2017-Nov-17 11:30N 47°18' W 002°09'0 0.0
2017-Nov-17 11:00N 47°18' W 002°09'0 0.0
2017-Nov-17 10:30N 47°18' W 002°09'0 0.0
2017-Nov-17 10:00N 47°18' W 002°09'0 0.0
2017-Nov-17 09:30N 47°18' W 002°09'0 0.0
2017-Nov-17 09:00N 47°18' W 002°09'0 0.0
2017-Nov-17 08:30N 47°18' W 002°09'3 5.8
2017-Nov-17 08:00N 47°16' W 002°12'0 0.0
2017-Nov-17 07:29N 47°16' W 002°12'0 0.0
2017-Nov-17 07:00N 47°16' W 002°12'0 0.0
2017-Nov-17 06:30N 47°16' W 002°12'0 0.0
2017-Nov-17 06:00N 47°16' W 002°12'0 0.0
2017-Nov-17 05:30N 47°16' W 002°12'0 0.0
2017-Nov-17 05:00N 47°16' W 002°12'0 0.0
2017-Nov-17 04:30N 47°16' W 002°12'0 0.0
2017-Nov-17 04:00N 47°16' W 002°12'0 0.0
2017-Nov-17 03:30N 47°16' W 002°12'0 0.0
2017-Nov-17 03:00N 47°16' W 002°12'0 0.0
2017-Nov-17 02:30N 47°16' W 002°12'0 0.0
2017-Nov-17 02:00N 47°16' W 002°12'0 0.0
2017-Nov-17 01:30N 47°16' W 002°12'0 0.0
2017-Nov-17 01:00N 47°16' W 002°12'0 0.0
2017-Nov-17 00:30N 47°16' W 002°12'0 0.0
2017-Nov-16 23:58N 47°16' W 002°12'0 0.0
2017-Nov-16 23:30N 47°16' W 002°12'0 0.0
2017-Nov-16 23:00N 47°16' W 002°12'0 0.0
2017-Nov-16 22:30N 47°16' W 002°12'0 0.0
2017-Nov-16 22:00N 47°16' W 002°12'0 0.0
2017-Nov-16 21:30N 47°16' W 002°12'0 0.0
2017-Nov-16 21:00N 47°16' W 002°12'0 0.0
2017-Nov-16 20:29N 47°16' W 002°12'0 0.0
2017-Nov-16 20:00N 47°16' W 002°12'0 0.0
2017-Nov-16 19:30N 47°16' W 002°12'0 0.0
2017-Nov-16 18:59N 47°16' W 002°12'0 0.0
2017-Nov-16 18:19N 47°16' W 002°12'0 0.0
2017-Nov-16 18:00N 47°16' W 002°12'0 0.0
2017-Nov-16 17:30N 47°16' W 002°12'0 0.0
2017-Nov-16 17:00N 47°16' W 002°12'0 0.0
2017-Nov-16 16:30N 47°16' W 002°12'0 0.0
2017-Nov-16 16:00N 47°16' W 002°12'0 0.0
2017-Nov-16 15:30N 47°16' W 002°12'0 0.0
2017-Nov-16 15:00N 47°16' W 002°12'0 0.0
2017-Nov-16 14:30N 47°16' W 002°12'0 0.0
2017-Nov-16 14:00N 47°16' W 002°12'0 0.0
2017-Nov-16 13:30N 47°16' W 002°12'0 0.0
2017-Nov-16 13:00N 47°16' W 002°12'0 0.0
2017-Nov-16 12:30N 47°16' W 002°12'0 0.0
2017-Nov-16 12:00N 47°16' W 002°12'0 0.0
2017-Nov-16 11:30N 47°16' W 002°12'0 0.0
2017-Nov-16 11:00N 47°16' W 002°12'0 0.0
2017-Nov-16 10:30N 47°16' W 002°12'0 0.0
2017-Nov-16 10:00N 47°16' W 002°12'0 0.0
2017-Nov-16 09:30N 47°16' W 002°12'0 0.0
2017-Nov-16 09:01N 47°16' W 002°12'0 0.0
2017-Nov-16 08:30N 47°16' W 002°12'0 0.0
2017-Nov-16 08:00N 47°16' W 002°12'0 0.0
2017-Nov-16 07:30N 47°16' W 002°12'0 0.0
2017-Nov-16 07:00N 47°16' W 002°12'0 0.0
2017-Nov-16 06:30N 47°16' W 002°12'0 0.0
2017-Nov-16 06:00N 47°16' W 002°12'0 0.0
2017-Nov-16 05:30N 47°16' W 002°12'0 0.0
2017-Nov-16 05:00N 47°16' W 002°12'0 0.0
2017-Nov-16 04:30N 47°16' W 002°12'3 5.9
2017-Nov-16 04:01N 47°18' W 002°09'2 3.2
2017-Nov-16 03:31N 47°18' W 002°06'0 0.0
2017-Nov-16 03:00N 47°18' W 002°06'0 0.1
2017-Nov-16 02:30N 47°18' W 002°06'1 2.7
2017-Nov-16 02:00N 47°18' W 002°08'3 5.2
2017-Nov-16 01:30N 47°16' W 002°11'1 1.1
2017-Nov-16 01:00N 47°16' W 002°12'0 0.0
2017-Nov-16 00:30N 47°16' W 002°12'0 0.0
2017-Nov-16 00:00N 47°16' W 002°12'0 0.0
2017-Nov-15 23:30N 47°16' W 002°12'0 0.3
2017-Nov-15 23:00N 47°16' W 002°12'3 5.5
2017-Nov-15 22:30N 47°18' W 002°09'0 0.1
2017-Nov-15 22:00N 47°18' W 002°09'1 2.4
2017-Nov-15 21:30N 47°17' W 002°10'2 3.3
2017-Nov-15 21:00N 47°16' W 002°12'0 0.1
2017-Nov-15 20:30N 47°16' W 002°12'0 0.0
2017-Nov-15 20:00N 47°16' W 002°12'0 0.0
2017-Nov-15 19:30N 47°16' W 002°12'0 0.0
2017-Nov-15 19:00N 47°16' W 002°12'0 0.0
2017-Nov-15 18:30N 47°16' W 002°12'0 0.0
2017-Nov-15 18:00N 47°16' W 002°12'0 0.0
2017-Nov-15 17:30N 47°16' W 002°12'0 0.0
2017-Nov-15 17:00N 47°16' W 002°12'0 0.0
2017-Nov-15 16:30N 47°16' W 002°12'0 0.0
2017-Nov-15 16:00N 47°16' W 002°12'1 2.6
2017-Nov-15 15:30N 47°17' W 002°11'3 6.5
2017-Nov-15 15:01N 47°18' W 002°06'0 0.1
2017-Nov-15 14:30N 47°18' W 002°06'0 0.0
2017-Nov-15 14:00N 47°18' W 002°06'2 3.1
2017-Nov-15 13:30N 47°18' W 002°04'3 6.8
2017-Nov-15 13:00N 47°18' W 002°09'3 5.0
2017-Nov-15 12:29N 47°16' W 002°12'0 0.0
2017-Nov-15 12:00N 47°16' W 002°12'0 0.0
2017-Nov-15 11:30N 47°16' W 002°12'0 0.0
2017-Nov-15 11:00N 47°16' W 002°12'0 0.0
2017-Nov-15 10:17N 47°16' W 002°12'0 0.0
2017-Nov-15 10:00N 47°16' W 002°12'0 0.0
2017-Nov-15 09:29N 47°16' W 002°12'0 0.0
2017-Nov-15 09:00N 47°16' W 002°12'0 0.0
2017-Nov-15 08:30N 47°16' W 002°12'0 0.0
2017-Nov-15 08:00N 47°16' W 002°12'0 0.0
2017-Nov-15 07:26N 47°16' W 002°12'0 0.0
2017-Nov-15 07:00N 47°16' W 002°12'0 0.0
2017-Nov-15 06:30N 47°16' W 002°12'0 0.0
2017-Nov-15 06:00N 47°16' W 002°12'0 0.0
2017-Nov-15 05:28N 47°16' W 002°12'0 0.0
2017-Nov-15 05:00N 47°16' W 002°12'0 0.0
2017-Nov-15 04:30N 47°16' W 002°12'0 0.0
2017-Nov-15 04:00N 47°16' W 002°12'0 0.2
2017-Nov-15 03:30N 47°16' W 002°12'1 1.4
2017-Nov-15 03:01N 47°17' W 002°12'0 0.5
2017-Nov-15 02:30N 47°17' W 002°12'0 0.7
2017-Nov-15 02:00N 47°16' W 002°12'1 1.9
2017-Nov-15 01:30N 47°15' W 002°13'0 0.3
2017-Nov-15 01:00N 47°16' W 002°13'1 1.3
2017-Nov-15 00:30N 47°16' W 002°12'0 0.0
2017-Nov-15 00:00N 47°16' W 002°12'0 0.0
2017-Nov-14 23:30N 47°16' W 002°12'0 0.0
2017-Nov-14 23:00N 47°16' W 002°12'0 0.0
2017-Nov-14 22:30N 47°16' W 002°12'0 0.0
2017-Nov-14 22:00N 47°16' W 002°12'0 0.0
2017-Nov-14 21:30N 47°16' W 002°12'0 0.0
2017-Nov-14 21:00N 47°16' W 002°12'0 0.0
2017-Nov-14 20:30N 47°16' W 002°12'0 0.0
2017-Nov-14 20:00N 47°16' W 002°12'0 0.0
2017-Nov-14 19:30N 47°16' W 002°12'0 0.0
2017-Nov-14 18:58N 47°16' W 002°12'0 0.0
2017-Nov-14 18:24N 47°16' W 002°12'0 0.0
2017-Nov-14 18:00N 47°16' W 002°12'2 4.7
2017-Nov-14 17:30N 47°18' W 002°09'0 0.2
2017-Nov-14 17:00N 47°18' W 002°09'2 4.9
2017-Nov-14 16:30N 47°16' W 002°12'0 0.0
2017-Nov-14 16:00N 47°16' W 002°12'0 0.0
2017-Nov-14 15:30N 47°16' W 002°12'4 7.9
2017-Nov-14 15:00N 47°18' W 002°07'611.7
2017-Nov-14 14:30N 47°17' W 001°59'611.4
2017-Nov-14 14:00N 47°15' W 001°51'5 9.9
2017-Nov-14 13:30N 47°12' W 001°45'5 9.4
2017-Nov-14 13:00N 47°12' W 001°38'1 1.7
2017-Nov-14 12:30N 47°12' W 001°36'0 0.2
2017-Nov-14 12:00N 47°12' W 001°36'0 0.1
2017-Nov-14 11:29N 47°12' W 001°36'1 2.5
2017-Nov-14 11:00N 47°12' W 001°38'4 8.4
2017-Nov-14 10:30N 47°12' W 001°44'510.1
2017-Nov-14 10:00N 47°15' W 001°51'510.5
2017-Nov-14 09:30N 47°17' W 001°58'510.7
2017-Nov-14 09:00N 47°18' W 002°05'4 8.6
2017-Nov-14 08:30N 47°16' W 002°11'1 1.1
2017-Nov-14 08:00N 47°16' W 002°12'3 5.3
2017-Nov-14 07:30N 47°18' W 002°09'0 0.0
2017-Nov-14 07:00N 47°18' W 002°09'0 0.0
2017-Nov-14 06:30N 47°18' W 002°09'0 0.0
2017-Nov-14 06:00N 47°18' W 002°09'0 0.0
2017-Nov-14 05:30N 47°18' W 002°09'0 0.0
2017-Nov-14 05:00N 47°18' W 002°09'0 0.0
2017-Nov-14 04:30N 47°18' W 002°09'0 0.0
2017-Nov-14 04:00N 47°18' W 002°09'0 0.0
2017-Nov-14 03:30N 47°18' W 002°09'0 0.0
2017-Nov-14 03:00N 47°18' W 002°09'0 0.0
2017-Nov-14 02:30N 47°18' W 002°09'0 0.3
2017-Nov-14 02:00N 47°18' W 002°09'2 3.5
2017-Nov-14 01:30N 47°18' W 002°06'0 0.6
2017-Nov-14 01:00N 47°18' W 002°07'2 3.3
2017-Nov-14 00:30N 47°18' W 002°09'0 0.3
2017-Nov-14 00:00N 47°18' W 002°09'0 0.0
2017-Nov-13 23:30N 47°18' W 002°09'0 0.0
2017-Nov-13 23:00N 47°18' W 002°09'0 0.0
2017-Nov-13 22:30N 47°18' W 002°09'0 0.0
2017-Nov-13 22:00N 47°18' W 002°09'3 0.1
2017-Nov-13 01:54N 47°18' W 002°05'0 0.0
2017-Nov-13 01:29N 47°18' W 002°05'0 0.0
2017-Nov-13 01:00N 47°18' W 002°05'0 0.3
2017-Nov-13 00:30N 47°18' W 002°05'5 0.8
2017-Nov-12 17:44N 47°16' W 002°12'0 0.0
2017-Nov-12 17:29N 47°16' W 002°12'0 0.0
2017-Nov-12 16:16N 47°16' W 002°12'4 0.8
2017-Nov-12 11:46N 47°18' W 002°08'2 4.9
2017-Nov-12 11:22N 47°17' W 002°10'2 4.7
2017-Nov-12 10:58N 47°16' W 002°12'0 0.2
2017-Nov-12 10:29N 47°16' W 002°12'0 0.0
2017-Nov-12 10:00N 47°16' W 002°12'0 0.0
2017-Nov-12 09:19N 47°16' W 002°12'0 0.0
2017-Nov-12 08:30N 47°16' W 002°12'0 0.0
2017-Nov-12 07:22N 47°16' W 002°12'0 0.0
2017-Nov-12 06:57N 47°16' W 002°12'0 0.0
2017-Nov-12 04:26N 47°16' W 002°12'0 0.0
2017-Nov-12 03:58N 47°16' W 002°12'0 0.0
2017-Nov-12 03:29N 47°16' W 002°12'0 0.0
2017-Nov-12 03:00N 47°16' W 002°12'0 0.0
2017-Nov-12 00:09N 47°16' W 002°12'0 0.0
2017-Nov-12 00:00N 47°16' W 002°12'0 0.0
2017-Nov-11 22:57N 47°16' W 002°12'0 0.0
2017-Nov-11 22:26N 47°16' W 002°12'0 0.0
2017-Nov-11 21:48N 47°16' W 002°12'0 0.0
2017-Nov-11 21:30N 47°16' W 002°12'0 0.0
2017-Nov-11 20:54N 47°16' W 002°12'0 0.0
2017-Nov-11 19:43N 47°16' W 002°12'0 0.0
2017-Nov-11 19:16N 47°16' W 002°12'0 0.0
2017-Nov-11 18:59N 47°16' W 002°12'0 0.0
2017-Nov-11 14:40N 47°16' W 002°12'0 0.0
2017-Nov-11 14:30N 47°16' W 002°12'0 0.0
2017-Nov-11 13:42N 47°16' W 002°12'0 0.0
2017-Nov-11 13:28N 47°16' W 002°12'0 0.0
2017-Nov-11 12:56N 47°16' W 002°12'0 0.0
2017-Nov-11 12:26N 47°16' W 002°12'0 0.0
2017-Nov-11 12:01N 47°16' W 002°12'0 0.0
2017-Nov-11 11:28N 47°16' W 002°12'0 0.0
2017-Nov-11 10:56N 47°16' W 002°12'0 0.0
2017-Nov-11 10:30N 47°16' W 002°12'0 0.0
2017-Nov-11 09:55N 47°16' W 002°12'0 0.0
2017-Nov-11 09:29N 47°16' W 002°12'0 0.0
2017-Nov-11 08:56N 47°16' W 002°12'0 0.0
2017-Nov-11 08:12N 47°16' W 002°12'0 0.0
2017-Nov-11 08:00N 47°16' W 002°12'0 0.0
2017-Nov-11 07:30N 47°16' W 002°12'0 0.0
2017-Nov-11 07:00N 47°16' W 002°12'0 0.0
2017-Nov-11 06:29N 47°16' W 002°12'0 0.0
2017-Nov-11 06:01N 47°16' W 002°12'0 0.0
2017-Nov-11 05:25N 47°16' W 002°12'0 0.0
2017-Nov-11 01:22N 47°16' W 002°12'0 0.0
2017-Nov-11 01:00N 47°16' W 002°12'0 0.0
2017-Nov-11 00:30N 47°16' W 002°12'4 6.9
2017-Nov-10 23:59N 47°18' W 002°08'2 5.0
2017-Nov-10 23:31N 47°18' W 002°04'0 0.4
2017-Nov-10 23:01N 47°18' W 002°04'1 2.3
2017-Nov-10 22:31N 47°18' W 002°06'1 2.6
2017-Nov-10 21:59N 47°18' W 002°04'4 9.1
2017-Nov-10 21:30N 47°17' W 002°10'2 3.4
2017-Nov-10 21:01N 47°16' W 002°12'0 0.0
2017-Nov-10 20:30N 47°16' W 002°12'0 0.0
2017-Nov-10 20:00N 47°16' W 002°12'0 0.0
2017-Nov-10 19:31N 47°16' W 002°12'0 0.0
2017-Nov-10 19:01N 47°16' W 002°12'0 0.0
2017-Nov-10 18:29N 47°16' W 002°12'0 0.0
2017-Nov-10 18:00N 47°16' W 002°12'4 8.1
2017-Nov-10 17:30N 47°18' W 002°07'1 2.3
2017-Nov-10 17:00N 47°18' W 002°05'0 0.1
2017-Nov-10 16:29N 47°18' W 002°05'0 0.5
2017-Nov-10 15:58N 47°18' W 002°05'1 1.4
2017-Nov-10 15:30N 47°18' W 002°04'1 2.6
2017-Nov-10 14:57N 47°18' W 002°06'1 2.5
2017-Nov-10 14:30N 47°18' W 002°08'1 0.8
2017-Nov-10 13:09N 47°18' W 002°09'0 0.3
2017-Nov-10 13:00N 47°18' W 002°09'2 0.7
2017-Nov-10 09:40N 47°16' W 002°12'0 0.0
2017-Nov-10 09:29N 47°16' W 002°12'0 0.0
2017-Nov-10 09:00N 47°16' W 002°12'0 0.0
2017-Nov-10 08:30N 47°16' W 002°12'0 0.0
2017-Nov-10 08:00N 47°16' W 002°12'0 0.0
2017-Nov-10 07:23N 47°16' W 002°12'0 0.0
2017-Nov-10 05:17N 47°16' W 002°12'0 0.0
2017-Nov-10 04:47N 47°16' W 002°12'0 0.0
2017-Nov-10 04:25N 47°16' W 002°12'0 0.0
2017-Nov-10 03:58N 47°16' W 002°12'0 0.0
2017-Nov-10 03:24N 47°16' W 002°12'0 0.0
2017-Nov-10 02:56N 47°16' W 002°12'0 0.0
2017-Nov-10 02:29N 47°16' W 002°12'0 0.0
2017-Nov-10 01:57N 47°16' W 002°12'  
Track history (hours):
 
Tides and Currents Weather Stations Pressure Air Temp Water Temp Dewpoint Dewpoint Depression Visibility Wind Speed Wind Dir Waves Ship Positions

Vb Ouragan

Last reported at 2017-Nov-20 00:30 UTC. Time now 2017-Nov-20 07:20 UTC.
Position N 47°18' W 002°08'.

Length 30 m; draft 5 m.

Type: Tug. MMSI: 228067800.

Date/timePositionNaut miles runAvg speedWind from/ knotsBaromVisibWave heightAir tempDewpointWater temp
2017-Nov-20 00:30N 47°18' W 002°08'1 2.6
2017-Nov-20 00:00N 47°18' W 002°06'0 0.2
2017-Nov-19 23:30N 47°18' W 002°06'0 0.1
2017-Nov-19 23:00N 47°18' W 002°06'0 0.6
2017-Nov-19 22:30N 47°18' W 002°07'4 7.8
2017-Nov-19 22:00N 47°16' W 002°11'0 0.6
2017-Nov-19 21:15N 47°16' W 002°12'0 0.0
2017-Nov-19 20:54N 47°16' W 002°12'0 0.0
2017-Nov-19 20:30N 47°16' W 002°12'0 0.0
2017-Nov-19 19:54N 47°16' W 002°12'0 0.0
2017-Nov-19 19:30N 47°16' W 002°12'0 0.0
2017-Nov-19 19:00N 47°16' W 002°12'0 0.0
2017-Nov-19 18:30N 47°16' W 002°12'0 0.0
2017-Nov-19 18:00N 47°16' W 002°12'0 0.0
2017-Nov-19 17:30N 47°16' W 002°12'0 0.0
2017-Nov-19 17:00N 47°16' W 002°12'4 8.9
2017-Nov-19 16:30N 47°18' W 002°06'2 3.1
2017-Nov-19 16:00N 47°18' W 002°04'0 0.0
2017-Nov-19 15:30N 47°18' W 002°04'3 6.1
2017-Nov-19 15:00N 47°18' W 002°08'1 1.2
2017-Nov-19 14:30N 47°18' W 002°09'2 4.8
2017-Nov-19 14:00N 47°16' W 002°12'0 0.0
2017-Nov-19 13:27N 47°16' W 002°12'0 0.0
2017-Nov-19 12:55N 47°16' W 002°12'0 0.0
2017-Nov-19 12:23N 47°16' W 002°12'0 0.0
2017-Nov-19 09:25N 47°16' W 002°12'0 0.0
2017-Nov-19 08:46N 47°16' W 002°12'0 0.0
2017-Nov-19 08:28N 47°16' W 002°12'0 0.0
2017-Nov-19 08:00N 47°16' W 002°12'0 0.0
2017-Nov-19 07:30N 47°16' W 002°12'0 0.0
2017-Nov-19 07:00N 47°16' W 002°12'0 0.0
2017-Nov-19 06:30N 47°16' W 002°12'0 0.0
2017-Nov-19 06:00N 47°16' W 002°12'0 0.0
2017-Nov-19 05:30N 47°16' W 002°12'0 0.0
2017-Nov-19 05:00N 47°16' W 002°12'0 0.0
2017-Nov-19 04:30N 47°16' W 002°12'0 0.0
2017-Nov-19 03:58N 47°16' W 002°12'0 0.0
2017-Nov-19 03:30N 47°16' W 002°12'0 0.0
2017-Nov-19 03:00N 47°16' W 002°12'0 0.0
2017-Nov-19 02:30N 47°16' W 002°12'0 0.0
2017-Nov-19 02:00N 47°16' W 002°12'0 0.0
2017-Nov-19 01:23N 47°16' W 002°12'0 0.0
2017-Nov-19 01:00N 47°16' W 002°12'0 0.0
2017-Nov-19 00:30N 47°16' W 002°12'0 0.0
2017-Nov-19 00:00N 47°16' W 002°12'0 0.0
2017-Nov-18 23:30N 47°16' W 002°12'0 0.0
2017-Nov-18 23:00N 47°16' W 002°12'0 0.0
2017-Nov-18 22:29N 47°16' W 002°12'0 0.0
2017-Nov-18 22:00N 47°16' W 002°12'0 0.0
2017-Nov-18 21:29N 47°16' W 002°12'0 0.0
2017-Nov-18 21:00N 47°16' W 002°12'0 0.0
2017-Nov-18 20:30N 47°16' W 002°12'0 0.0
2017-Nov-18 20:00N 47°16' W 002°12'0 0.0
2017-Nov-18 19:30N 47°16' W 002°12'0 0.0
2017-Nov-18 18:59N 47°16' W 002°12'0 0.0
2017-Nov-18 18:30N 47°16' W 002°12'0 0.0
2017-Nov-18 18:00N 47°16' W 002°12'0 0.0
2017-Nov-18 17:30N 47°16' W 002°12'0 0.0
2017-Nov-18 17:00N 47°16' W 002°12'0 0.0
2017-Nov-18 16:30N 47°16' W 002°12'2 4.9
2017-Nov-18 16:00N 47°18' W 002°09'4 7.4
2017-Nov-18 15:30N 47°18' W 002°04'0 0.4
2017-Nov-18 15:00N 47°18' W 002°04'5 9.3
2017-Nov-18 14:30N 47°17' W 002°11'1 2.7
2017-Nov-18 14:00N 47°16' W 002°12'0 0.0
2017-Nov-18 13:30N 47°16' W 002°12'0 0.0
2017-Nov-18 13:00N 47°16' W 002°12'0 0.0
2017-Nov-18 12:30N 47°16' W 002°12'0 0.0
2017-Nov-18 12:00N 47°16' W 002°12'0 0.0
2017-Nov-18 11:30N 47°16' W 002°12'0 0.0
2017-Nov-18 10:58N 47°16' W 002°12'0 0.0
2017-Nov-18 10:30N 47°16' W 002°12'0 0.0
2017-Nov-18 10:00N 47°16' W 002°12'0 0.0
2017-Nov-18 09:30N 47°16' W 002°12'0 0.0
2017-Nov-18 09:00N 47°16' W 002°12'0 0.0
2017-Nov-18 08:30N 47°16' W 002°12'0 0.0
2017-Nov-18 08:00N 47°16' W 002°12'3 5.7
2017-Nov-18 07:30N 47°18' W 002°09'0 0.0
2017-Nov-18 07:00N 47°18' W 002°09'0 0.0
2017-Nov-18 06:30N 47°18' W 002°09'0 0.0
2017-Nov-18 06:00N 47°18' W 002°09'0 0.0
2017-Nov-18 05:30N 47°18' W 002°09'0 0.0
2017-Nov-18 05:00N 47°18' W 002°09'0 0.0
2017-Nov-18 04:30N 47°18' W 002°09'0 0.0
2017-Nov-18 04:00N 47°18' W 002°09'0 0.0
2017-Nov-18 03:30N 47°18' W 002°09'0 0.0
2017-Nov-18 03:00N 47°18' W 002°09'0 0.0
2017-Nov-18 02:30N 47°18' W 002°09'0 0.0
2017-Nov-18 02:00N 47°18' W 002°09'0 0.0
2017-Nov-18 01:30N 47°18' W 002°09'0 0.0
2017-Nov-18 00:56N 47°18' W 002°09'0 0.0
2017-Nov-18 00:30N 47°18' W 002°09'0 0.0
2017-Nov-18 00:00N 47°18' W 002°09'0 0.0
2017-Nov-17 23:30N 47°18' W 002°09'0 0.0
2017-Nov-17 23:00N 47°18' W 002°09'0 0.0
2017-Nov-17 22:30N 47°18' W 002°09'0 0.0
2017-Nov-17 22:00N 47°18' W 002°09'0 0.0
2017-Nov-17 21:30N 47°18' W 002°09'0 0.0
2017-Nov-17 21:00N 47°18' W 002°09'0 0.0
2017-Nov-17 20:30N 47°18' W 002°09'0 0.0
2017-Nov-17 20:00N 47°18' W 002°09'0 0.0
2017-Nov-17 19:30N 47°18' W 002°09'0 0.0
2017-Nov-17 19:00N 47°18' W 002°09'0 0.0
2017-Nov-17 18:30N 47°18' W 002°09'0 0.0
2017-Nov-17 18:00N 47°18' W 002°09'0 0.0
2017-Nov-17 17:30N 47°18' W 002°09'0 0.0
2017-Nov-17 17:00N 47°18' W 002°09'0 0.0
2017-Nov-17 16:30N 47°18' W 002°09'0 0.0
2017-Nov-17 16:00N 47°18' W 002°09'0 0.0
2017-Nov-17 15:30N 47°18' W 002°09'0 0.0
2017-Nov-17 15:00N 47°18' W 002°09'0 0.0
2017-Nov-17 14:30N 47°18' W 002°09'0 0.0
2017-Nov-17 14:00N 47°18' W 002°09'0 0.0
2017-Nov-17 13:30N 47°18' W 002°09'0 0.0
2017-Nov-17 13:00N 47°18' W 002°09'0 0.0
2017-Nov-17 12:29N 47°18' W 002°09'0 0.0
2017-Nov-17 11:58N 47°18' W 002°09'0 0.0
2017-Nov-17 11:30N 47°18' W 002°09'0 0.0
2017-Nov-17 11:00N 47°18' W 002°09'0 0.0
2017-Nov-17 10:30N 47°18' W 002°09'0 0.0
2017-Nov-17 10:00N 47°18' W 002°09'0 0.0
2017-Nov-17 09:30N 47°18' W 002°09'0 0.0
2017-Nov-17 09:00N 47°18' W 002°09'0 0.0
2017-Nov-17 08:30N 47°18' W 002°09'3 5.8
2017-Nov-17 08:00N 47°16' W 002°12'0 0.0
2017-Nov-17 07:29N 47°16' W 002°12'0 0.0
2017-Nov-17 07:00N 47°16' W 002°12'0 0.0
2017-Nov-17 06:30N 47°16' W 002°12'0 0.0
2017-Nov-17 06:00N 47°16' W 002°12'0 0.0
2017-Nov-17 05:30N 47°16' W 002°12'0 0.0
2017-Nov-17 05:00N 47°16' W 002°12'0 0.0
2017-Nov-17 04:30N 47°16' W 002°12'0 0.0
2017-Nov-17 04:00N 47°16' W 002°12'0 0.0
2017-Nov-17 03:30N 47°16' W 002°12'0 0.0
2017-Nov-17 03:00N 47°16' W 002°12'0 0.0
2017-Nov-17 02:30N 47°16' W 002°12'0 0.0
2017-Nov-17 02:00N 47°16' W 002°12'0 0.0
2017-Nov-17 01:30N 47°16' W 002°12'0 0.0
2017-Nov-17 01:00N 47°16' W 002°12'0 0.0
2017-Nov-17 00:30N 47°16' W 002°12'0 0.0
2017-Nov-16 23:58N 47°16' W 002°12'0 0.0
2017-Nov-16 23:30N 47°16' W 002°12'0 0.0
2017-Nov-16 23:00N 47°16' W 002°12'0 0.0
2017-Nov-16 22:30N 47°16' W 002°12'0 0.0
2017-Nov-16 22:00N 47°16' W 002°12'0 0.0
2017-Nov-16 21:30N 47°16' W 002°12'0 0.0
2017-Nov-16 21:00N 47°16' W 002°12'0 0.0
2017-Nov-16 20:29N 47°16' W 002°12'0 0.0
2017-Nov-16 20:00N 47°16' W 002°12'0 0.0
2017-Nov-16 19:30N 47°16' W 002°12'0 0.0
2017-Nov-16 18:59N 47°16' W 002°12'0 0.0
2017-Nov-16 18:19N 47°16' W 002°12'0 0.0
2017-Nov-16 18:00N 47°16' W 002°12'0 0.0
2017-Nov-16 17:30N 47°16' W 002°12'0 0.0
2017-Nov-16 17:00N 47°16' W 002°12'0 0.0
2017-Nov-16 16:30N 47°16' W 002°12'0 0.0
2017-Nov-16 16:00N 47°16' W 002°12'0 0.0
2017-Nov-16 15:30N 47°16' W 002°12'0 0.0
2017-Nov-16 15:00N 47°16' W 002°12'0 0.0
2017-Nov-16 14:30N 47°16' W 002°12'0 0.0
2017-Nov-16 14:00N 47°16' W 002°12'0 0.0
2017-Nov-16 13:30N 47°16' W 002°12'0 0.0
2017-Nov-16 13:00N 47°16' W 002°12'0 0.0
2017-Nov-16 12:30N 47°16' W 002°12'0 0.0
2017-Nov-16 12:00N 47°16' W 002°12'0 0.0
2017-Nov-16 11:30N 47°16' W 002°12'0 0.0
2017-Nov-16 11:00N 47°16' W 002°12'0 0.0
2017-Nov-16 10:30N 47°16' W 002°12'0 0.0
2017-Nov-16 10:00N 47°16' W 002°12'0 0.0
2017-Nov-16 09:30N 47°16' W 002°12'0 0.0
2017-Nov-16 09:01N 47°16' W 002°12'0 0.0
2017-Nov-16 08:30N 47°16' W 002°12'0 0.0
2017-Nov-16 08:00N 47°16' W 002°12'0 0.0
2017-Nov-16 07:30N 47°16' W 002°12'0 0.0
2017-Nov-16 07:00N 47°16' W 002°12'0 0.0
2017-Nov-16 06:30N 47°16' W 002°12'0 0.0
2017-Nov-16 06:00N 47°16' W 002°12'0 0.0
2017-Nov-16 05:30N 47°16' W 002°12'0 0.0
2017-Nov-16 05:00N 47°16' W 002°12'0 0.0
2017-Nov-16 04:30N 47°16' W 002°12'3 5.9
2017-Nov-16 04:01N 47°18' W 002°09'2 3.2
2017-Nov-16 03:31N 47°18' W 002°06'0 0.0
2017-Nov-16 03:00N 47°18' W 002°06'0 0.1
2017-Nov-16 02:30N 47°18' W 002°06'1 2.7
2017-Nov-16 02:00N 47°18' W 002°08'3 5.2
2017-Nov-16 01:30N 47°16' W 002°11'1 1.1
2017-Nov-16 01:00N 47°16' W 002°12'0 0.0
2017-Nov-16 00:30N 47°16' W 002°12'0 0.0
2017-Nov-16 00:00N 47°16' W 002°12'0 0.0
2017-Nov-15 23:30N 47°16' W 002°12'0 0.3
2017-Nov-15 23:00N 47°16' W 002°12'3 5.5
2017-Nov-15 22:30N 47°18' W 002°09'0 0.1
2017-Nov-15 22:00N 47°18' W 002°09'1 2.4
2017-Nov-15 21:30N 47°17' W 002°10'2 3.3
2017-Nov-15 21:00N 47°16' W 002°12'0 0.1
2017-Nov-15 20:30N 47°16' W 002°12'0 0.0
2017-Nov-15 20:00N 47°16' W 002°12'0 0.0
2017-Nov-15 19:30N 47°16' W 002°12'0 0.0
2017-Nov-15 19:00N 47°16' W 002°12'0 0.0
2017-Nov-15 18:30N 47°16' W 002°12'0 0.0
2017-Nov-15 18:00N 47°16' W 002°12'0 0.0
2017-Nov-15 17:30N 47°16' W 002°12'0 0.0
2017-Nov-15 17:00N 47°16' W 002°12'0 0.0
2017-Nov-15 16:30N 47°16' W 002°12'0 0.0
2017-Nov-15 16:00N 47°16' W 002°12'1 2.6
2017-Nov-15 15:30N 47°17' W 002°11'3 6.5
2017-Nov-15 15:01N 47°18' W 002°06'0 0.1
2017-Nov-15 14:30N 47°18' W 002°06'0 0.0
2017-Nov-15 14:00N 47°18' W 002°06'2 3.1
2017-Nov-15 13:30N 47°18' W 002°04'3 6.8
2017-Nov-15 13:00N 47°18' W 002°09'3 5.0
2017-Nov-15 12:29N 47°16' W 002°12'0 0.0
2017-Nov-15 12:00N 47°16' W 002°12'0 0.0
2017-Nov-15 11:30N 47°16' W 002°12'0 0.0
2017-Nov-15 11:00N 47°16' W 002°12'0 0.0
2017-Nov-15 10:17N 47°16' W 002°12'0 0.0
2017-Nov-15 10:00N 47°16' W 002°12'0 0.0
2017-Nov-15 09:29N 47°16' W 002°12'0 0.0
2017-Nov-15 09:00N 47°16' W 002°12'0 0.0
2017-Nov-15 08:30N 47°16' W 002°12'0 0.0
2017-Nov-15 08:00N 47°16' W 002°12'0 0.0
2017-Nov-15 07:26N 47°16' W 002°12'0 0.0
2017-Nov-15 07:00N 47°16' W 002°12'0 0.0
2017-Nov-15 06:30N 47°16' W 002°12'0 0.0
2017-Nov-15 06:00N 47°16' W 002°12'0 0.0
2017-Nov-15 05:28N 47°16' W 002°12'0 0.0
2017-Nov-15 05:00N 47°16' W 002°12'0 0.0
2017-Nov-15 04:30N 47°16' W 002°12'0 0.0
2017-Nov-15 04:00N 47°16' W 002°12'0 0.2
2017-Nov-15 03:30N 47°16' W 002°12'1 1.4
2017-Nov-15 03:01N 47°17' W 002°12'0 0.5
2017-Nov-15 02:30N 47°17' W 002°12'0 0.7
2017-Nov-15 02:00N 47°16' W 002°12'1 1.9
2017-Nov-15 01:30N 47°15' W 002°13'0 0.3
2017-Nov-15 01:00N 47°16' W 002°13'1 1.3
2017-Nov-15 00:30N 47°16' W 002°12'0 0.0
2017-Nov-15 00:00N 47°16' W 002°12'0 0.0
2017-Nov-14 23:30N 47°16' W 002°12'0 0.0
2017-Nov-14 23:00N 47°16' W 002°12'0 0.0
2017-Nov-14 22:30N 47°16' W 002°12'0 0.0
2017-Nov-14 22:00N 47°16' W 002°12'0 0.0
2017-Nov-14 21:30N 47°16' W 002°12'0 0.0
2017-Nov-14 21:00N 47°16' W 002°12'0 0.0
2017-Nov-14 20:30N 47°16' W 002°12'0 0.0
2017-Nov-14 20:00N 47°16' W 002°12'0 0.0
2017-Nov-14 19:30N 47°16' W 002°12'0 0.0
2017-Nov-14 18:58N 47°16' W 002°12'0 0.0
2017-Nov-14 18:24N 47°16' W 002°12'0 0.0
2017-Nov-14 18:00N 47°16' W 002°12'2 4.7
2017-Nov-14 17:30N 47°18' W 002°09'0 0.2
2017-Nov-14 17:00N 47°18' W 002°09'2 4.9
2017-Nov-14 16:30N 47°16' W 002°12'0 0.0
2017-Nov-14 16:00N 47°16' W 002°12'0 0.0
2017-Nov-14 15:30N 47°16' W 002°12'4 7.9
2017-Nov-14 15:00N 47°18' W 002°07'611.7
2017-Nov-14 14:30N 47°17' W 001°59'611.4
2017-Nov-14 14:00N 47°15' W 001°51'5 9.9
2017-Nov-14 13:30N 47°12' W 001°45'5 9.4
2017-Nov-14 13:00N 47°12' W 001°38'1 1.7
2017-Nov-14 12:30N 47°12' W 001°36'0 0.2
2017-Nov-14 12:00N 47°12' W 001°36'0 0.1
2017-Nov-14 11:29N 47°12' W 001°36'1 2.5
2017-Nov-14 11:00N 47°12' W 001°38'4 8.4
2017-Nov-14 10:30N 47°12' W 001°44'510.1
2017-Nov-14 10:00N 47°15' W 001°51'510.5
2017-Nov-14 09:30N 47°17' W 001°58'510.7
2017-Nov-14 09:00N 47°18' W 002°05'4 8.6
2017-Nov-14 08:30N 47°16' W 002°11'1 1.1
2017-Nov-14 08:00N 47°16' W 002°12'3 5.3
2017-Nov-14 07:30N 47°18' W 002°09'0 0.0
2017-Nov-14 07:00N 47°18' W 002°09'0 0.0
2017-Nov-14 06:30N 47°18' W 002°09'0 0.0
2017-Nov-14 06:00N 47°18' W 002°09'0 0.0
2017-Nov-14 05:30N 47°18' W 002°09'0 0.0
2017-Nov-14 05:00N 47°18' W 002°09'0 0.0
2017-Nov-14 04:30N 47°18' W 002°09'0 0.0
2017-Nov-14 04:00N 47°18' W 002°09'0 0.0
2017-Nov-14 03:30N 47°18' W 002°09'0 0.0
2017-Nov-14 03:00N 47°18' W 002°09'0 0.0
2017-Nov-14 02:30N 47°18' W 002°09'0 0.3
2017-Nov-14 02:00N 47°18' W 002°09'2 3.5
2017-Nov-14 01:30N 47°18' W 002°06'0 0.6
2017-Nov-14 01:00N 47°18' W 002°07'2 3.3
2017-Nov-14 00:30N 47°18' W 002°09'0 0.3
2017-Nov-14 00:00N 47°18' W 002°09'0 0.0
2017-Nov-13 23:30N 47°18' W 002°09'0 0.0
2017-Nov-13 23:00N 47°18' W 002°09'0 0.0
2017-Nov-13 22:30N 47°18' W 002°09'0 0.0
2017-Nov-13 22:00N 47°18' W 002°09'3 0.1
2017-Nov-13 01:54N 47°18' W 002°05'0 0.0
2017-Nov-13 01:29N 47°18' W 002°05'0 0.0
2017-Nov-13 01:00N 47°18' W 002°05'0 0.3
2017-Nov-13 00:30N 47°18' W 002°05'5 0.8
2017-Nov-12 17:44N 47°16' W 002°12'0 0.0
2017-Nov-12 17:29N 47°16' W 002°12'0 0.0
2017-Nov-12 16:16N 47°16' W 002°12'4 0.8
2017-Nov-12 11:46N 47°18' W 002°08'2 4.9
2017-Nov-12 11:22N 47°17' W 002°10'2 4.7
2017-Nov-12 10:58N 47°16' W 002°12'0 0.2
2017-Nov-12 10:29N 47°16' W 002°12'0 0.0
2017-Nov-12 10:00N 47°16' W 002°12'0 0.0
2017-Nov-12 09:19N 47°16' W 002°12'0 0.0
2017-Nov-12 08:30N 47°16' W 002°12'0 0.0
2017-Nov-12 07:22N 47°16' W 002°12'0 0.0
2017-Nov-12 06:57N 47°16' W 002°12'0 0.0
2017-Nov-12 04:26N 47°16' W 002°12'0 0.0
2017-Nov-12 03:58N 47°16' W 002°12'0 0.0
2017-Nov-12 03:29N 47°16' W 002°12'0 0.0
2017-Nov-12 03:00N 47°16' W 002°12'0 0.0
2017-Nov-12 00:09N 47°16' W 002°12'0 0.0
2017-Nov-12 00:00N 47°16' W 002°12'0 0.0
2017-Nov-11 22:57N 47°16' W 002°12'0 0.0
2017-Nov-11 22:26N 47°16' W 002°12'0 0.0
2017-Nov-11 21:48N 47°16' W 002°12'0 0.0
2017-Nov-11 21:30N 47°16' W 002°12'0 0.0
2017-Nov-11 20:54N 47°16' W 002°12'0 0.0
2017-Nov-11 19:43N 47°16' W 002°12'0 0.0
2017-Nov-11 19:16N 47°16' W 002°12'0 0.0
2017-Nov-11 18:59N 47°16' W 002°12'0 0.0
2017-Nov-11 14:40N 47°16' W 002°12'0 0.0
2017-Nov-11 14:30N 47°16' W 002°12'0 0.0
2017-Nov-11 13:42N 47°16' W 002°12'0 0.0
2017-Nov-11 13:28N 47°16' W 002°12'0 0.0
2017-Nov-11 12:56N 47°16' W 002°12'0 0.0
2017-Nov-11 12:26N 47°16' W 002°12'0 0.0
2017-Nov-11 12:01N 47°16' W 002°12'0 0.0
2017-Nov-11 11:28N 47°16' W 002°12'0 0.0
2017-Nov-11 10:56N 47°16' W 002°12'0 0.0
2017-Nov-11 10:30N 47°16' W 002°12'0 0.0
2017-Nov-11 09:55N 47°16' W 002°12'0 0.0
2017-Nov-11 09:29N 47°16' W 002°12'0 0.0
2017-Nov-11 08:56N 47°16' W 002°12'0 0.0
2017-Nov-11 08:12N 47°16' W 002°12'0 0.0
2017-Nov-11 08:00N 47°16' W 002°12'0 0.0
2017-Nov-11 07:30N 47°16' W 002°12'0 0.0
2017-Nov-11 07:00N 47°16' W 002°12'0 0.0
2017-Nov-11 06:29N 47°16' W 002°12'0 0.0
2017-Nov-11 06:01N 47°16' W 002°12'0 0.0
2017-Nov-11 05:25N 47°16' W 002°12'0 0.0
2017-Nov-11 01:22N 47°16' W 002°12'0 0.0
2017-Nov-11 01:00N 47°16' W 002°12'0 0.0
2017-Nov-11 00:30N 47°16' W 002°12'4 6.9
2017-Nov-10 23:59N 47°18' W 002°08'2 5.0
2017-Nov-10 23:31N 47°18' W 002°04'0 0.4
2017-Nov-10 23:01N 47°18' W 002°04'1 2.3
2017-Nov-10 22:31N 47°18' W 002°06'1 2.6
2017-Nov-10 21:59N 47°18' W 002°04'4 9.1
2017-Nov-10 21:30N 47°17' W 002°10'2 3.4
2017-Nov-10 21:01N 47°16' W 002°12'0 0.0
2017-Nov-10 20:30N 47°16' W 002°12'0 0.0
2017-Nov-10 20:00N 47°16' W 002°12'0 0.0
2017-Nov-10 19:31N 47°16' W 002°12'0 0.0
2017-Nov-10 19:01N 47°16' W 002°12'0 0.0
2017-Nov-10 18:29N 47°16' W 002°12'0 0.0
2017-Nov-10 18:00N 47°16' W 002°12'4 8.1
2017-Nov-10 17:30N 47°18' W 002°07'1 2.3
2017-Nov-10 17:00N 47°18' W 002°05'0 0.1
2017-Nov-10 16:29N 47°18' W 002°05'0 0.5
2017-Nov-10 15:58N 47°18' W 002°05'1 1.4
2017-Nov-10 15:30N 47°18' W 002°04'1 2.6
2017-Nov-10 14:57N 47°18' W 002°06'1 2.5
2017-Nov-10 14:30N 47°18' W 002°08'1 0.8
2017-Nov-10 13:09N 47°18' W 002°09'0 0.3
2017-Nov-10 13:00N 47°18' W 002°09'2 0.7
2017-Nov-10 09:40N 47°16' W 002°12'0 0.0
2017-Nov-10 09:29N 47°16' W 002°12'0 0.0
2017-Nov-10 09:00N 47°16' W 002°12'0 0.0
2017-Nov-10 08:30N 47°16' W 002°12'0 0.0
2017-Nov-10 08:00N 47°16' W 002°12'0 0.0
2017-Nov-10 07:23N 47°16' W 002°12'0 0.0
2017-Nov-10 05:17N 47°16' W 002°12'0 0.0
2017-Nov-10 04:47N 47°16' W 002°12'0 0.0
2017-Nov-10 04:25N 47°16' W 002°12'0 0.0
2017-Nov-10 03:58N 47°16' W 002°12'0 0.0
2017-Nov-10 03:24N 47°16' W 002°12'0 0.0
2017-Nov-10 02:56N 47°16' W 002°12'0 0.0
2017-Nov-10 02:29N 47°16' W 002°12'0 0.0
2017-Nov-10 01:57N 47°16' W 002°12'  

Dump ship's entire track history